Latest Coastal Weather Observations for Coffs Harbour

IDN60701

Issued at 6:45 pm EST Wednesday 20 August 2014 (issued every 10 minutes, with the page automatically refreshed every 10 minutes)

About coastal observations | Map of coastal stations | Coastal observations for NSW | Marine services | Other Formats
Station Details ID: 059040 Name: COFFS HARBOUR MO Lat: -30.31 Lon: 153.12 Height: 5.0 m
Data from the previous 72 hours. | See also: Recent months at Coffs Harbour
Date/Time
EST
Temp

°C
Wind Pressure Rain
since 9am
mm
Weather Cloud Vis
km
Sea
Height
m
Swell
Dir
 
Speed
knots
Gust
knots
hPa Trend Height
m
Period
s
Dir
20/06:30pm 17.1 S 19 25 1022.8 - 0.0 - Cloudy 10 - - - -
20/06:00pm 17.3 S 20 26 1022.4 - 0.0 - Cloudy 10 - - - -
20/05:30pm 17.3 S 22 29 1021.8 - 0.0 - Partly cloudy 10 - - - -
20/05:00pm 17.4 S 22 29 1021.4 - 0.0 - Partly cloudy 10 - - - -
20/04:46pm 17.6 S 21 31 1021.1 - 0.0 - Partly cloudy 10 - - - -
20/04:30pm 17.8 S 21 28 1021.0 - 0.0 - Partly cloudy 10 - - - -
20/04:00pm 18.2 S 20 27 1020.8 - 0.0 - Partly cloudy 10 - - - -
20/03:30pm 18.3 S 19 26 1020.6 - 0.0 - Partly cloudy 10 - - - -
20/03:00pm 19.1 S 19 25 1020.4 R 0.0 Haze Mostly clear 20 - - - -
20/02:30pm 19.6 S 18 21 1020.0 - 0.0 - - 10 - - - -
20/02:00pm 20.1 S 18 24 1019.9 - 0.0 - - 10 - - - -
20/01:30pm 19.7 S 19 24 1020.0 - 0.0 - - 10 - - - -
20/01:00pm 19.7 S 19 26 1020.1 - 0.0 - - 10 - - - -
20/12:30pm 19.9 S 18 22 1020.1 - 0.0 - - 10 - - - -
20/12:00pm 19.8 S 17 22 1020.5 - 0.0 - - 10 - - - -
20/11:30am 19.4 S 19 26 1020.8 - 0.0 - - 10 - - - -
20/11:00am 19.1 SSW 19 24 1021.0 - 0.0 - - 10 - - - -
20/10:30am 18.6 SW 19 26 1021.2 - 0.0 - - 10 - - - -
20/10:00am 18.8 SSW 21 28 1020.9 - 0.0 - - 10 - - - -
20/09:30am 17.8 SSW 21 29 1020.6 - 0.0 - - 10 - - - -
20/09:00am 17.5 SSW 20 24 1020.8 R 0.0 Haze Mostly clear 25 - - - -
20/08:30am 17.0 SW 19 26 1020.6 - 0.0 - - 10 - - - -
20/08:00am 16.2 SW 18 24 1020.5 - 0.0 - - 10 - - - -
20/07:30am 15.7 SSW 16 22 1020.3 - 0.0 - Partly cloudy 10 - - - -
20/07:00am 14.9 SW 14 20 1020.0 - 0.0 - Partly cloudy 10 - - - -
20/06:30am 14.0 SW 13 18 1019.7 - 0.0 - - 10 - - - -
20/06:00am 14.2 SW 13 16 1019.2 - 0.0 - - 10 - - - -
20/05:30am 14.1 SW 14 19 1018.5 - 0.0 - - 10 - - - -
20/05:00am 14.0 SW 15 19 1018.1 - 0.0 - - 10 - - - -
20/04:30am 14.2 SW 15 19 1017.7 - 0.0 - - 10 - - - -
20/04:00am 14.2 SW 16 22 1017.2 - 0.0 - - 10 - - - -
20/03:30am 14.5 SW 17 23 1016.9 - 0.0 - - 10 - - - -
20/03:00am 14.3 SW 16 22 1016.9 - 0.0 - - 10 - - - -
20/02:30am 14.6 SW 17 24 1016.8 - 0.0 - - 10 - - - -
20/02:00am 14.8 SW 17 23 1016.9 - 0.0 - Partly cloudy 10 - - - -
20/01:32am 14.8 SW 16 27 1017.1 - 0.0 - - 10 - - - -
20/01:30am 14.8 SW 16 21 1017.1 - 0.0 - - 10 - - - -
20/01:00am 14.8 SW 17 22 1017.1 - 0.0 - - 10 - - - -
20/12:30am 14.9 SW 16 21 1016.9 - 0.0 - - 10 - - - -
20/12:00am 14.9 SW 15 21 1016.8 - 0.0 - - 10 - - - -
 
Date/Time
EST
Temp

°C
Wind Pressure Rain
since 9am
mm
Weather Cloud Vis
km
Sea
Height
m
Swell
Dir
 
Speed
knots
Gust
knots
hPa Trend Height
m
Period
s
Dir
19/11:30pm 15.0 SW 16 21 1016.6 - 0.0 - - 10 - - - -
19/11:00pm 15.2 SSW 16 19 1016.6 - 0.0 - - 10 - - - -
19/10:30pm 15.2 SSW 13 17 1016.5 - 0.0 - - 10 - - - -
19/10:00pm 15.2 SW 12 16 1016.5 - 0.0 - - 10 - - - -
19/09:30pm 15.4 SW 13 20 1016.7 - 0.0 - Partly cloudy 10 - - - -
19/09:00pm 16.0 SW 11 15 1016.6 - 0.0 - Cloudy 10 - - - -
19/08:30pm 16.0 SW 11 16 1016.5 - 0.0 - Partly cloudy 10 - - - -
19/08:00pm 15.7 SW 9 13 1016.3 - 0.0 - Partly cloudy 10 - - - -
19/07:30pm 16.0 SW 10 14 1015.7 - 0.0 - Partly cloudy 10 - - - -
19/07:00pm 15.4 WSW 6 8 1015.4 - 0.0 - Partly cloudy 10 - - - -
19/06:30pm 16.0 SW 9 11 1014.8 - 0.0 - Partly cloudy 10 - - - -
19/06:00pm 15.6 WSW 5 7 1014.4 - 0.0 - Cloudy 10 - - - -
19/05:30pm 15.9 SW 7 8 1013.6 - 0.0 - Partly cloudy 10 - - - -
19/05:00pm 16.1 WSW 6 8 1013.2 - 0.0 - Partly cloudy 10 - - - -
19/04:30pm 16.1 W 6 8 1012.6 - 0.0 - Partly cloudy 10 - - - -
19/04:00pm 16.1 W 5 6 1012.3 - 0.0 - Partly cloudy 10 - - - -
19/03:30pm 16.7 SW 13 17 1012.3 - 0.0 - Partly cloudy 10 - - - -
19/03:00pm 17.9 SSW 14 17 1012.0 - 0.0 - Cloudy 10 - - - -
19/02:30pm 18.3 SSW 16 22 1011.6 - 0.0 - Partly cloudy 10 - - - -
19/02:00pm 19.1 SSW 13 17 1011.2 - 0.0 - Partly cloudy 10 - - - -
19/01:30pm 19.7 SSW 18 24 1011.1 - 0.0 - Partly cloudy 10 - - - -
19/01:00pm 19.3 SSW 17 22 1011.1 - 0.0 - Partly cloudy 10 - - - -
19/12:31pm 19.4 SSW 17 27 1010.9 - 0.0 - Partly cloudy 10 - - - -
19/12:30pm 19.3 SSW 17 25 1010.9 - 0.0 - Cloudy 10 - - - -
19/12:00pm 20.0 SW 15 19 1011.1 - 0.0 - Cloudy 10 - - - -
19/11:30am 21.0 SW 16 22 1011.0 - 0.0 - Partly cloudy 10 - - - -
19/11:00am 20.9 SW 17 23 1011.0 - 0.0 - - 10 - - - -
19/10:30am 20.7 SSW 19 22 1011.0 - 0.0 - - 10 - - - -
19/10:00am 20.1 WSW 13 18 1011.0 - 0.0 - - 10 - - - -
19/09:30am 19.3 SW 15 20 1011.2 - 0.0 - - 10 - - - -
19/09:00am 19.1 WSW 12 16 1011.2 R 0.0 Haze Mostly clear 30 - - - -
19/08:30am 18.4 WSW 10 14 1010.8 - 0.0 - - 10 - - - -
19/08:00am 17.4 WSW 7 11 1010.6 - 0.0 - - 10 - - - -
19/07:30am 16.5 WSW 9 14 1010.4 - 0.0 - - 10 - - - -
19/07:00am 15.2 SW 7 9 1010.1 - 0.0 - - 10 - - - -
19/06:30am 15.4 WSW 8 13 1009.6 - 0.0 - - 10 - - - -
19/06:00am 15.1 WSW 7 12 1009.2 - 0.0 - - 10 - - - -
19/05:30am 15.4 WSW 7 10 1008.7 - 0.0 - - 10 - - - -
19/05:00am 15.6 SW 8 10 1008.4 - 0.0 - - 10 - - - -
19/04:30am 15.7 WSW 10 15 1008.0 - 0.0 - - 10 - - - -
19/04:00am 16.0 WSW 11 17 1007.6 - 0.0 - - 10 - - - -
19/03:30am 14.3 WSW 8 13 1007.7 - 0.0 - - 10 - - - -
19/03:00am 9.8 WSW 7 10 1007.9 - 0.0 - - 10 - - - -
19/02:30am 10.0 WNW 3 5 1007.5 - 0.0 - - 10 - - - -
19/02:00am 10.4 W 7 8 1007.4 - 0.0 - - 10 - - - -
19/01:30am 10.9 WSW 6 8 1007.3 - 0.0 - - 10 - - - -
19/01:00am 10.8 NW 6 7 1007.3 - 0.0 - - 10 - - - -
19/12:30am 11.4 NNW 4 6 1007.4 - 0.0 - - 10 - - - -
19/12:00am 11.8 N 7 8 1007.7 - 0.0 - - 10 - - - -
 
Date/Time
EST
Temp

°C
Wind Pressure Rain
since 9am
mm
Weather Cloud Vis
km
Sea
Height
m
Swell
Dir
 
Speed
knots
Gust
knots
hPa Trend Height
m
Period
s
Dir
18/11:30pm 12.3 N 7 7 1007.8 - 0.0 - - 10 - - - -
18/11:00pm 13.7 N 5 7 1007.8 - 0.0 - - 10 - - - -
18/10:30pm 13.0 NNW 5 7 1008.0 - 0.0 - - 10 - - - -
18/10:00pm 12.8 NNW 7 9 1008.0 - 0.0 - - 10 - - - -
18/09:30pm 14.1 W 7 10 1007.7 - 0.0 - - 10 - - - -
18/09:00pm 15.6 WSW 7 10 1007.6 - 0.0 - - 10 - - - -
18/08:30pm 16.2 WSW 6 8 1007.4 - 0.0 - - 10 - - - -
18/08:00pm 16.3 W 5 8 1007.2 - 0.0 - - 10 - - - -
18/07:30pm 17.0 WSW 8 11 1007.0 - 0.0 - Cloudy 10 - - - -
18/07:00pm 16.8 WSW 6 9 1006.6 - 0.0 - Partly cloudy 10 - - - -
18/06:30pm 16.1 WSW 7 11 1006.2 - 0.0 - - 10 - - - -
18/06:00pm 16.2 WSW 7 11 1005.8 - 0.0 - - 10 - - - -
18/05:30pm 17.3 WSW 12 17 1005.3 - 0.0 - Partly cloudy 10 - - - -
18/05:00pm 17.7 W 9 15 1004.8 - 0.0 - Partly cloudy 10 - - - -
18/04:30pm 18.4 WSW 7 9 1004.3 - 0.0 - Partly cloudy 10 - - - -
18/04:00pm 18.8 WSW 8 10 1003.9 - 0.0 - Partly cloudy 10 - - - -
18/03:30pm 17.9 SW 5 6 1003.9 - 0.0 - Cloudy 10 - - - -
18/03:00pm 18.4 S 6 7 1003.6 R 0.0 Haze Cloudy 25 - - - -
18/02:30pm 18.9 S 6 8 1003.3 - 0.0 - Partly cloudy 10 - - - -
18/02:00pm 19.0 SW 6 8 1003.2 - 0.0 - Partly cloudy 10 - - - -
18/01:30pm 19.0 WSW 4 6 1003.4 - 0.0 - Partly cloudy 10 - - - -
18/01:00pm 18.9 WSW 4 6 1003.6 - 0.0 - Partly cloudy 10 - - - -
18/12:30pm 18.6 W 6 10 1003.8 - 0.0 - Partly cloudy 10 - - - -
18/12:00pm 18.7 WNW 11 15 1004.1 - 0.0 - Cloudy 10 - - - -
18/11:30am 19.5 SW 9 15 1004.4 - 0.0 - - 10 - - - -
18/11:00am 19.9 SSW 8 15 1004.6 - 0.0 - - 10 - - - -
18/10:30am 19.4 SW 5 7 1004.9 - 0.0 - - 10 - - - -
18/10:00am 18.5 WNW 11 16 1005.3 - 0.0 - - 10 - - - -
18/09:30am 17.5 N 8 14 1005.6 - 0.0 - - 10 - - - -
18/09:00am 16.5 NNW 9 14 1006.0 F 0.2 Haze Mostly clear 30 - - - -
18/08:30am 15.9 NNW 10 13 1006.1 - 0.2 - - 10 - - - -
18/08:00am 14.7 NW 7 11 1006.2 - 0.2 - - 10 - - - -
18/07:30am 13.2 NW 9 14 1006.4 - 0.2 - - 10 - - - -
18/07:00am 12.3 NW 5 7 1006.0 - 0.2 - - 10 - - - -
18/06:30am 10.7 NNW 7 9 1005.7 - 0.2 - - 10 - - - -
18/06:00am 9.5 NW 8 10 1005.6 - 0.2 - Cloudy 10 - - - -
18/05:30am 11.2 NW 8 10 1005.3 - 0.2 - - 10 - - - -
18/05:00am 10.3 WNW 8 12 1005.4 - 0.2 - - 10 - - - -
18/04:30am 10.3 N 10 12 1005.0 - 0.2 - - 10 - - - -
18/04:00am 9.9 NNW 8 9 1005.4 - 0.2 - - 10 - - - -
18/03:30am 10.2 NNW 7 8 1005.3 - 0.2 - Partly cloudy 10 - - - -
18/03:00am 9.6 NW 5 7 1005.6 - 0.2 - - 10 - - - -
18/02:30am 9.4 NW 5 6 1005.8 - 0.2 - - 10 - - - -
18/02:00am 9.0 S 1 5 1006.1 - 0.2 - - 10 - - - -
18/01:30am 9.5 WSW 4 7 1006.3 - 0.2 - - 10 - - - -
18/01:00am 8.8 CALM 0 0 1006.7 - 0.2 - Partly cloudy 10 - - - -
18/12:30am 9.2 CALM 0 0 1007.0 - 0.2 - - 10 - - - -
18/12:00am 9.3 CALM 0 0 1007.3 - 0.2 - - 10 - - - -
 
Date/Time
EST
Temp

°C
Wind Pressure Rain
since 9am
mm
Weather Cloud Vis
km
Sea
Height
m
Swell
Dir
 
Speed
knots
Gust
knots
hPa Trend Height
m
Period
s
Dir
17/11:30pm 10.0 NW 1 4 1007.4 - 0.2 - - 10 - - - -
17/11:00pm 11.2 NW 6 6 1007.6 - 0.2 - Partly cloudy 10 - - - -
17/10:30pm 12.0 NW 7 8 1007.8 - 0.2 - Cloudy 10 - - - -
17/10:00pm 11.2 WNW 6 7 1008.0 - 0.2 - Partly cloudy 10 - - - -
17/09:30pm 12.1 WNW 7 8 1008.0 - 0.2 - Partly cloudy 10 - - - -
17/09:00pm 10.8 WNW 7 8 1008.2 - 0.2 - - 10 - - - -
17/08:30pm 10.5 W 8 10 1007.9 - 0.2 - - 10 - - - -
17/08:00pm 10.6 CALM 0 2 1007.7 - 0.2 - - 10 - - - -
17/07:30pm 11.9 WNW 5 6 1007.6 - 0.2 - - 10 - - - -
17/07:00pm 13.0 W 6 8 1007.3 - 0.2 - - 10 - - - -

Other Formats:

Comma delimited format used in spreadsheet applications
http://www.bom.gov.au/fwo/IDN60701/IDN60701.94791.axf

JavaScript Object Notation format (JSON) in row-major order
http://www.bom.gov.au/fwo/IDN60701/IDN60701.94791.json